createdAt,value
2019-02-25T00:00:11.751Z,10.98
2019-02-25T00:01:39.277Z,9.45
2019-02-25T00:03:05.197Z,10.93
2019-02-25T00:04:30.770Z,9.15
2019-02-25T00:05:56.387Z,9.98
2019-02-25T00:07:21.921Z,9.35
2019-02-25T00:08:47.595Z,8.00
2019-02-25T00:10:13.307Z,9.85
2019-02-25T00:11:38.889Z,9.95
2019-02-25T00:13:04.619Z,9.85
2019-02-25T00:14:30.203Z,9.13
2019-02-25T00:15:55.731Z,8.83
2019-02-25T00:17:21.265Z,9.48
2019-02-25T00:18:46.818Z,8.65
2019-02-25T00:20:12.532Z,8.78
2019-02-25T00:21:38.008Z,9.50
2019-02-25T00:23:03.533Z,8.98
2019-02-25T00:24:29.138Z,7.60
2019-02-25T00:25:54.649Z,8.75
2019-02-25T00:27:20.182Z,8.58
2019-02-25T00:28:45.719Z,8.23
2019-02-25T00:30:11.478Z,9.28
2019-02-25T00:31:37.014Z,8.20
2019-02-25T00:33:02.578Z,9.33
2019-02-25T00:34:28.092Z,8.95
2019-02-25T00:35:53.604Z,8.43
2019-02-25T00:37:19.211Z,9.20
2019-02-25T00:39:11.809Z,9.00
2019-02-25T00:40:37.452Z,8.50
2019-02-25T00:42:03.045Z,8.73
2019-02-25T00:43:28.530Z,7.92
2019-02-25T00:44:54.274Z,9.75
2019-02-25T00:46:19.741Z,8.03
2019-02-25T00:47:45.222Z,9.83
2019-02-25T00:49:10.730Z,8.73
2019-02-25T00:50:36.219Z,8.40
2019-02-25T00:52:01.730Z,7.80
2019-02-25T00:53:27.354Z,8.75
2019-02-25T00:54:52.920Z,8.40
2019-02-25T00:56:18.430Z,8.70
2019-02-25T00:57:43.922Z,7.92
2019-02-25T00:59:09.428Z,8.30
2019-02-25T01:00:35.083Z,8.20
2019-02-25T01:02:00.714Z,7.15
2019-02-25T01:03:26.214Z,8.78
2019-02-25T01:04:51.774Z,8.53
2019-02-25T01:06:17.340Z,8.80
2019-02-25T01:07:43.082Z,8.23
2019-02-25T01:09:08.978Z,7.92
2019-02-25T01:10:34.517Z,8.40
2019-02-25T01:12:00.727Z,7.25
2019-02-25T01:13:26.197Z,7.30
2019-02-25T01:14:51.694Z,7.60
2019-02-25T01:16:17.204Z,7.97
2019-02-25T01:17:42.675Z,8.43
2019-02-25T01:19:08.198Z,7.80
2019-02-25T01:20:33.832Z,7.87
2019-02-25T01:21:59.329Z,7.30
2019-02-25T01:23:24.946Z,8.70
2019-02-25T01:24:50.440Z,8.00
2019-02-25T01:26:15.979Z,8.43
2019-02-25T01:27:41.496Z,7.83
2019-02-25T01:29:07.003Z,7.83
2019-02-25T01:30:32.618Z,8.40
2019-02-25T01:31:58.132Z,7.58
2019-02-25T01:33:23.602Z,8.65
2019-02-25T01:34:49.208Z,8.55
2019-02-25T01:36:14.827Z,8.80
2019-02-25T01:37:40.432Z,8.63
2019-02-25T01:39:07.445Z,9.08
2019-02-25T01:40:32.979Z,9.43
2019-02-25T01:41:58.454Z,7.95
2019-02-25T01:43:23.972Z,8.05
2019-02-25T01:44:49.462Z,7.90
2019-02-25T01:46:15.001Z,9.25
2019-02-25T01:47:40.486Z,9.43
2019-02-25T01:49:06.077Z,10.25
2019-02-25T01:50:31.591Z,11.33
2019-02-25T01:51:57.117Z,9.50
2019-02-25T01:53:22.626Z,9.80
2019-02-25T01:54:48.096Z,10.65
2019-02-25T01:56:13.655Z,10.90
2019-02-25T01:57:39.157Z,11.43
2019-02-25T01:59:04.597Z,11.48
2019-02-25T02:00:30.252Z,11.68
2019-02-25T02:01:55.762Z,11.05
2019-02-25T02:03:21.290Z,10.85
2019-02-25T02:04:46.825Z,9.68
2019-02-25T02:06:12.420Z,9.30
2019-02-25T02:07:37.910Z,9.00
2019-02-25T02:09:03.731Z,9.03
2019-02-25T02:10:29.328Z,9.08
2019-02-25T02:11:54.829Z,8.70
2019-02-25T02:13:20.358Z,7.20
2019-02-25T02:14:45.918Z,7.67
2019-02-25T02:16:11.380Z,7.95
2019-02-25T02:17:36.916Z,7.60
2019-02-25T02:19:02.415Z,7.72
2019-02-25T02:20:28.017Z,8.15
2019-02-25T02:21:53.543Z,7.08
2019-02-25T02:23:19.043Z,6.78
2019-02-25T02:24:44.651Z,7.53
2019-02-25T02:26:10.548Z,6.78
2019-02-25T02:27:36.040Z,6.22
2019-02-25T02:29:01.646Z,6.30
2019-02-25T02:30:27.134Z,5.78
2019-02-25T02:31:52.673Z,7.05
2019-02-25T02:33:18.219Z,6.40
2019-02-25T02:34:43.717Z,6.55
2019-02-25T02:36:11.524Z,6.72
2019-02-25T02:37:36.441Z,5.87
2019-02-25T02:39:01.978Z,7.05
2019-02-25T02:40:27.470Z,6.12
2019-02-25T02:42:17.344Z,5.70
2019-02-25T02:43:42.806Z,6.75
2019-02-25T02:45:23.849Z,6.62
2019-02-25T02:47:27.926Z,6.55
2019-02-25T02:48:57.226Z,5.53
2019-02-25T02:50:24.698Z,5.70
2019-02-25T02:51:50.246Z,6.42
2019-02-25T02:53:15.746Z,6.15
2019-02-25T02:54:41.262Z,7.17
2019-02-25T02:56:06.846Z,6.08
2019-02-25T02:57:32.339Z,6.65
2019-02-25T02:58:57.968Z,5.45
2019-02-25T03:00:23.598Z,5.90
2019-02-25T03:01:49.111Z,5.70
2019-02-25T03:03:14.618Z,5.78
2019-02-25T03:04:40.073Z,5.80
2019-02-25T03:06:05.679Z,5.10
2019-02-25T03:07:31.282Z,5.33
2019-02-25T03:08:56.701Z,5.58
2019-02-25T03:10:22.136Z,5.95
2019-02-25T03:11:47.583Z,6.08
2019-02-25T03:13:13.028Z,5.00
2019-02-25T03:14:38.452Z,6.15
2019-02-25T03:16:03.848Z,5.80
2019-02-25T03:17:29.299Z,5.72
2019-02-25T03:18:54.756Z,5.60
2019-02-25T03:20:20.231Z,6.62
2019-02-25T03:21:45.704Z,6.03
2019-02-25T03:23:11.160Z,5.72
2019-02-25T03:24:36.594Z,6.05
2019-02-25T03:26:02.066Z,6.28
2019-02-25T03:27:27.465Z,6.37
2019-02-25T03:28:52.906Z,5.72
2019-02-25T03:30:19.880Z,6.28
2019-02-25T03:31:45.276Z,6.45
2019-02-25T03:33:10.672Z,5.55
2019-02-25T03:34:36.103Z,5.62
2019-02-25T03:36:01.550Z,6.33
2019-02-25T03:37:27.088Z,6.08
2019-02-25T03:38:52.532Z,5.55
2019-02-25T03:40:19.405Z,5.58
2019-02-25T03:41:44.843Z,5.90
2019-02-25T03:43:10.264Z,5.58
2019-02-25T03:44:35.701Z,5.70
2019-02-25T03:46:01.145Z,5.87
2019-02-25T03:47:26.573Z,4.85
2019-02-25T03:48:52.010Z,5.45
2019-02-25T03:50:17.601Z,5.70
2019-02-25T03:51:43.006Z,5.42
2019-02-25T03:53:08.388Z,6.10
2019-02-25T03:54:33.848Z,5.65
2019-02-25T03:55:59.480Z,5.25
2019-02-25T03:57:25.156Z,6.00
2019-02-25T03:58:50.657Z,6.00
2019-02-25T04:00:18.318Z,5.50
2019-02-25T04:01:43.727Z,5.83
2019-02-25T04:03:09.263Z,5.40
2019-02-25T04:04:34.832Z,4.97
2019-02-25T04:06:00.383Z,5.50
2019-02-25T04:07:25.944Z,5.12
2019-02-25T04:08:51.475Z,4.90
2019-02-25T04:10:17.139Z,5.50
2019-02-25T04:11:42.587Z,5.05
2019-02-25T04:13:08.016Z,5.28
2019-02-25T04:14:33.439Z,4.53
2019-02-25T04:15:58.999Z,5.10
2019-02-25T04:17:24.407Z,4.65
2019-02-25T04:18:49.850Z,6.03
2019-02-25T04:20:15.969Z,5.72
2019-02-25T04:21:41.400Z,4.75
2019-02-25T04:23:06.864Z,4.75
2019-02-25T04:24:32.382Z,5.33
2019-02-25T04:25:57.834Z,5.53
2019-02-25T04:27:23.255Z,5.65
2019-02-25T04:28:48.683Z,5.40
2019-02-25T04:30:15.404Z,5.10
2019-02-25T04:31:40.836Z,5.08
2019-02-25T04:33:06.249Z,5.15
2019-02-25T04:34:31.684Z,5.60
2019-02-25T04:35:57.126Z,5.35
2019-02-25T04:37:22.717Z,5.30
2019-02-25T04:38:48.246Z,6.03
2019-02-25T04:40:13.963Z,4.83
2019-02-25T04:41:39.369Z,5.10
2019-02-25T04:43:04.904Z,5.80
2019-02-25T04:44:30.350Z,6.05
2019-02-25T04:45:55.898Z,7.10
2019-02-25T04:47:21.278Z,5.55
2019-02-25T04:48:46.692Z,6.25
2019-02-25T04:50:12.856Z,6.58
2019-02-25T04:51:38.286Z,6.70
2019-02-25T04:53:03.746Z,7.22
2019-02-25T04:54:29.207Z,6.67
2019-02-25T04:55:54.655Z,7.58
2019-02-25T04:57:20.097Z,6.47
2019-02-25T04:58:45.519Z,7.25
2019-02-25T05:00:13.873Z,7.15
2019-02-25T05:01:39.360Z,6.72
2019-02-25T05:03:04.732Z,7.72
2019-02-25T05:04:30.271Z,5.30
2019-02-25T05:05:55.717Z,6.75
2019-02-25T05:07:24.117Z,6.85
2019-02-25T05:08:49.595Z,6.85
2019-02-25T05:10:20.007Z,5.90
2019-02-25T05:11:45.471Z,6.00
2019-02-25T05:13:10.889Z,5.28
2019-02-25T05:14:36.338Z,5.47
2019-02-25T05:16:01.754Z,6.37
2019-02-25T05:17:27.227Z,6.00
2019-02-25T05:18:52.630Z,5.50
2019-02-25T05:20:18.060Z,5.75
2019-02-25T05:21:43.528Z,5.10
2019-02-25T05:23:08.956Z,4.70
2019-02-25T05:24:34.344Z,4.80
2019-02-25T05:25:59.762Z,6.05
2019-02-25T05:27:25.212Z,6.05
2019-02-25T05:28:50.678Z,6.08
2019-02-25T05:30:16.332Z,5.85
2019-02-25T05:31:41.763Z,5.78
2019-02-25T05:33:07.236Z,5.62
2019-02-25T05:34:32.672Z,7.10
2019-02-25T05:35:58.069Z,5.90
2019-02-25T05:37:23.534Z,5.70
2019-02-25T05:38:49.008Z,5.25
2019-02-25T05:40:17.234Z,6.53
2019-02-25T05:41:42.681Z,5.83
2019-02-25T05:43:08.092Z,5.53
2019-02-25T05:44:33.528Z,4.95
2019-02-25T05:45:58.980Z,4.85
2019-02-25T05:47:24.421Z,5.50
2019-02-25T05:48:49.856Z,4.33
2019-02-25T05:50:15.612Z,4.65
2019-02-25T05:51:41.078Z,5.28
2019-02-25T05:53:06.543Z,5.42
2019-02-25T05:54:31.968Z,6.03
2019-02-25T05:55:57.334Z,5.30
2019-02-25T05:57:22.850Z,5.80
2019-02-25T05:58:48.314Z,5.08
2019-02-25T06:00:18.095Z,6.10
2019-02-25T06:01:43.530Z,5.72
2019-02-25T06:03:08.991Z,6.58
2019-02-25T06:04:34.440Z,6.58
2019-02-25T06:05:59.850Z,7.42
2019-02-25T06:07:25.343Z,5.72
2019-02-25T06:08:50.771Z,6.33
2019-02-25T06:10:16.516Z,6.90
2019-02-25T06:11:41.938Z,6.75
2019-02-25T06:13:07.392Z,6.62
2019-02-25T06:14:32.821Z,7.53
2019-02-25T06:15:58.238Z,8.08
2019-02-25T06:17:23.648Z,7.40
2019-02-25T06:18:49.134Z,7.33
2019-02-25T06:20:14.933Z,7.12
2019-02-25T06:21:40.376Z,8.25
2019-02-25T06:23:05.806Z,7.87
2019-02-25T06:24:31.243Z,7.90
2019-02-25T06:25:56.660Z,7.92
2019-02-25T06:27:30.522Z,7.95
2019-02-25T06:28:49.171Z,7.10
2019-02-25T06:30:16.719Z,8.23
2019-02-25T06:31:42.151Z,7.15
2019-02-25T06:33:07.615Z,8.73
2019-02-25T06:34:33.099Z,8.53
2019-02-25T06:35:58.527Z,7.65
2019-02-25T06:37:23.959Z,8.60
2019-02-25T06:38:49.411Z,8.53
2019-02-25T06:40:16.065Z,8.98
2019-02-25T06:41:41.757Z,8.70
2019-02-25T06:43:07.181Z,8.10
2019-02-25T06:44:32.660Z,8.85
2019-02-25T06:45:58.208Z,8.30
2019-02-25T06:47:23.646Z,8.90
2019-02-25T06:48:49.126Z,9.45
2019-02-25T06:50:14.616Z,8.60
2019-02-25T06:51:40.067Z,8.35
2019-02-25T06:53:05.631Z,8.43
2019-02-25T06:54:31.075Z,8.65
2019-02-25T06:55:56.507Z,9.13
2019-02-25T06:57:22.171Z,8.70
2019-02-25T06:58:47.848Z,9.20
2019-02-25T07:00:15.524Z,9.10
2019-02-25T07:01:40.982Z,9.18
2019-02-25T07:03:06.393Z,7.90
2019-02-25T07:04:53.488Z,9.00
2019-02-25T07:06:23.462Z,8.88
2019-02-25T07:08:07.708Z,7.90
2019-02-25T07:09:58.138Z,7.60
2019-02-25T07:11:32.291Z,7.95
2019-02-25T07:13:19.289Z,9.00
2019-02-25T07:14:59.800Z,8.23
2019-02-25T07:16:42.480Z,7.95
2019-02-25T07:18:32.632Z,8.25
2019-02-25T07:20:34.911Z,8.10
2019-02-25T07:22:27.815Z,7.30
2019-02-25T07:24:02.302Z,8.40
2019-02-25T07:25:45.063Z,9.90
2019-02-25T07:27:31.813Z,12.82
2019-02-25T07:29:06.446Z,12.07
2019-02-25T07:30:59.394Z,11.10
2019-02-25T07:32:58.492Z,9.30
2019-02-25T07:34:39.762Z,9.28
2019-02-25T07:36:18.289Z,10.13
2019-02-25T07:37:56.704Z,10.58
2019-02-25T07:39:34.860Z,8.50
2019-02-25T07:41:21.612Z,9.40
2019-02-25T07:43:15.587Z,8.30
2019-02-25T07:44:59.910Z,8.43
2019-02-25T07:46:34.734Z,7.60
2019-02-25T07:48:08.170Z,8.08
2019-02-25T07:49:50.787Z,8.60
2019-02-25T07:51:27.032Z,7.85
2019-02-25T07:53:02.452Z,9.13
2019-02-25T07:54:46.531Z,9.05
2019-02-25T07:56:25.402Z,8.40
2019-02-25T07:57:56.816Z,7.90
2019-02-25T07:59:36.842Z,7.72
2019-02-25T08:01:10.360Z,7.92
2019-02-25T08:02:54.637Z,10.08
2019-02-25T08:04:41.720Z,14.85
2019-02-25T08:06:18.082Z,14.38
2019-02-25T08:08:08.168Z,13.25
2019-02-25T08:09:51.096Z,12.63
2019-02-25T08:11:25.999Z,10.68
2019-02-25T08:13:19.403Z,10.20
2019-02-25T08:14:59.603Z,11.60
2019-02-25T08:16:43.826Z,9.95
2019-02-25T08:18:26.619Z,10.18
2019-02-25T08:20:05.871Z,11.08
2019-02-25T08:21:48.733Z,11.00
2019-02-25T08:23:35.792Z,11.20
2019-02-25T08:25:23.680Z,12.73
2019-02-25T08:27:06.553Z,10.75
2019-02-25T08:29:08.884Z,10.08
2019-02-25T08:30:59.375Z,10.43
2019-02-25T08:32:34.543Z,10.38
2019-02-25T08:34:21.601Z,12.15
2019-02-25T08:37:02.291Z,11.40
2019-02-25T08:38:36.014Z,10.05
2019-02-25T08:40:43.767Z,10.90
2019-02-25T08:42:17.000Z,11.15
2019-02-25T08:44:07.199Z,10.63
2019-02-25T08:45:49.772Z,9.93
2019-02-25T08:47:25.462Z,9.35
2019-02-25T08:49:00.198Z,9.23
2019-02-25T08:50:25.675Z,10.55
2019-02-25T08:51:51.240Z,10.43
2019-02-25T08:53:16.808Z,10.70
2019-02-25T08:54:42.392Z,10.13
2019-02-25T08:56:07.899Z,10.23
2019-02-25T08:57:33.340Z,9.40
2019-02-25T08:58:58.738Z,9.38
2019-02-25T09:00:24.259Z,9.23
2019-02-25T09:01:49.782Z,10.10
2019-02-25T09:03:15.242Z,10.38
2019-02-25T09:04:40.689Z,9.75
2019-02-25T09:06:06.255Z,9.53
2019-02-25T09:07:31.814Z,10.68
2019-02-25T09:08:57.333Z,9.73
2019-02-25T09:10:22.763Z,9.05
2019-02-25T09:11:48.181Z,10.23
2019-02-25T09:13:13.767Z,9.25
2019-02-25T09:14:39.182Z,9.40
2019-02-25T09:16:04.692Z,9.25
2019-02-25T09:17:30.123Z,8.48
2019-02-25T09:18:55.621Z,9.70
2019-02-25T09:20:21.042Z,9.13
2019-02-25T09:21:46.498Z,8.30
2019-02-25T09:23:11.955Z,9.00
2019-02-25T09:24:37.377Z,8.60
2019-02-25T09:26:02.904Z,10.35
2019-02-25T09:27:28.393Z,9.97
2019-02-25T09:28:53.984Z,8.78
2019-02-25T09:30:19.427Z,8.33
2019-02-25T09:31:44.890Z,9.03
2019-02-25T09:33:10.336Z,8.15
2019-02-25T09:34:35.811Z,8.40
2019-02-25T09:36:01.264Z,8.67
2019-02-25T09:37:26.751Z,8.40
2019-02-25T09:38:52.204Z,7.83
2019-02-25T09:40:17.896Z,8.20
2019-02-25T09:41:43.320Z,8.20
2019-02-25T09:43:08.744Z,9.53
2019-02-25T09:44:34.224Z,8.27
2019-02-25T09:45:59.747Z,8.27
2019-02-25T09:47:25.254Z,8.33
2019-02-25T09:48:50.731Z,7.47
2019-02-25T09:50:16.259Z,7.53
2019-02-25T09:51:41.686Z,6.67
2019-02-25T09:53:07.458Z,6.57
2019-02-25T09:54:32.997Z,6.60
2019-02-25T09:55:58.495Z,7.50
2019-02-25T09:57:23.956Z,5.90
2019-02-25T09:58:49.451Z,5.63
2019-02-25T10:00:16.321Z,6.73
2019-02-25T10:01:41.767Z,6.60
2019-02-25T10:03:07.220Z,6.07
2019-02-25T10:04:32.667Z,7.07
2019-02-25T10:05:58.067Z,6.00
2019-02-25T10:07:23.515Z,7.40
2019-02-25T10:08:48.990Z,7.27
2019-02-25T10:10:15.018Z,7.53
2019-02-25T10:11:40.461Z,6.80
2019-02-25T10:13:06.022Z,5.70
2019-02-25T10:14:31.535Z,5.50
2019-02-25T10:15:57.084Z,7.60
2019-02-25T10:17:24.022Z,8.23
2019-02-25T10:18:49.592Z,6.47
2019-02-25T10:20:15.267Z,6.23
2019-02-25T10:21:40.691Z,6.17
2019-02-25T10:23:06.223Z,6.90
2019-02-25T10:24:31.700Z,6.40
2019-02-25T10:25:57.149Z,6.10
2019-02-25T10:27:22.626Z,7.33
2019-02-25T10:28:48.082Z,7.97
2019-02-25T10:30:13.834Z,6.60
2019-02-25T10:31:39.738Z,6.07
2019-02-25T10:33:06.303Z,7.50
2019-02-25T10:34:31.705Z,6.13
2019-02-25T10:35:57.175Z,5.67
2019-02-25T10:37:22.577Z,7.10
2019-02-25T10:38:47.966Z,7.00
2019-02-25T10:40:15.408Z,9.10
2019-02-25T10:41:41.030Z,8.43
2019-02-25T10:43:06.576Z,7.67
2019-02-25T10:44:33.964Z,7.43
2019-02-25T10:45:59.111Z,7.17
2019-02-25T10:47:24.650Z,7.90
2019-02-25T10:48:54.202Z,8.33
2019-02-25T10:50:17.292Z,7.30
2019-02-25T10:51:43.971Z,7.30
2019-02-25T10:53:10.964Z,7.23
2019-02-25T10:54:36.811Z,7.77
2019-02-25T10:56:14.337Z,8.07
2019-02-25T10:57:39.667Z,7.37
2019-02-25T10:59:06.210Z,6.70
2019-02-25T11:00:32.378Z,7.80
2019-02-25T11:01:57.821Z,7.73
2019-02-25T11:03:23.270Z,8.47
2019-02-25T11:04:49.354Z,7.80
2019-02-25T11:06:15.816Z,8.40
2019-02-25T11:07:42.045Z,6.97
2019-02-25T11:09:34.991Z,7.73
2019-02-25T11:11:04.746Z,8.37
2019-02-25T11:12:32.057Z,6.87
2019-02-25T11:13:58.778Z,7.40
2019-02-25T11:15:24.387Z,7.13
2019-02-25T11:16:50.471Z,9.07
2019-02-25T11:18:19.237Z,7.67
2019-02-25T11:19:43.920Z,6.83
2019-02-25T11:21:10.630Z,6.90
2019-02-25T11:22:38.058Z,6.80
2019-02-25T11:24:03.316Z,7.00
2019-02-25T11:25:30.190Z,7.87
2019-02-25T11:26:56.972Z,7.63
2019-02-25T11:28:25.720Z,7.87
2019-02-25T11:29:49.861Z,7.47
2019-02-25T11:31:17.173Z,7.27
2019-02-25T11:32:42.647Z,6.50
2019-02-25T11:34:08.148Z,6.77
2019-02-25T11:35:34.241Z,6.40
2019-02-25T11:37:00.950Z,6.80
2019-02-25T11:38:28.208Z,6.17
2019-02-25T11:39:54.922Z,6.23
2019-02-25T11:41:20.641Z,6.87
2019-02-25T11:42:46.127Z,6.90
2019-02-25T11:44:11.555Z,6.33
2019-02-25T11:45:37.307Z,5.50
2019-02-25T11:47:02.843Z,5.40
2019-02-25T11:48:28.504Z,5.60
2019-02-25T11:49:54.002Z,6.10
2019-02-25T11:51:19.638Z,5.83
2019-02-25T11:52:45.101Z,5.83
2019-02-25T11:54:10.575Z,6.70
2019-02-25T11:55:36.039Z,5.60
2019-02-25T11:57:01.604Z,6.13
2019-02-25T11:58:27.116Z,6.10
2019-02-25T11:59:52.565Z,6.27
2019-02-25T12:01:18.023Z,5.47
2019-02-25T12:02:43.834Z,6.00
2019-02-25T12:04:09.345Z,5.97
2019-02-25T12:05:34.866Z,5.00
2019-02-25T12:07:00.282Z,6.27
2019-02-25T12:08:25.787Z,5.53
2019-02-25T12:09:51.219Z,6.07
2019-02-25T12:11:16.655Z,5.97
2019-02-25T12:12:42.101Z,5.90
2019-02-25T12:14:07.594Z,6.73
2019-02-25T12:15:33.023Z,5.83
2019-02-25T12:16:58.460Z,6.03
2019-02-25T12:18:23.926Z,6.10
2019-02-25T12:19:49.357Z,5.50
2019-02-25T12:21:14.935Z,6.40
2019-02-25T12:22:40.449Z,5.80
2019-02-25T12:24:06.120Z,6.30
2019-02-25T12:25:31.574Z,6.53
2019-02-25T12:26:57.022Z,6.70
2019-02-25T12:28:22.508Z,6.55
2019-02-25T12:29:48.010Z,6.03
2019-02-25T12:31:13.559Z,6.60
2019-02-25T12:32:38.965Z,6.63
2019-02-25T12:34:04.463Z,8.05
2019-02-25T12:35:29.891Z,6.80
2019-02-25T12:36:55.419Z,6.17
2019-02-25T12:38:20.914Z,7.33
2019-02-25T12:39:46.426Z,7.40
2019-02-25T12:41:11.808Z,5.40
2019-02-25T12:42:37.291Z,6.08
2019-02-25T12:44:02.756Z,6.30
2019-02-25T12:45:28.396Z,7.92
2019-02-25T12:46:53.851Z,7.43
2019-02-25T12:48:19.372Z,7.10
2019-02-25T12:49:44.788Z,6.20
2019-02-25T12:51:10.308Z,6.25
2019-02-25T12:52:35.765Z,6.03
2019-02-25T12:54:02.145Z,6.93
2019-02-25T12:55:27.637Z,5.93
2019-02-25T12:56:53.079Z,5.78
2019-02-25T12:58:18.582Z,5.67
2019-02-25T12:59:44.067Z,6.40
2019-02-25T13:01:09.519Z,5.25
2019-02-25T13:02:34.976Z,6.07
2019-02-25T13:04:00.440Z,6.60
2019-02-25T13:05:25.846Z,6.03
2019-02-25T13:06:51.335Z,5.90
2019-02-25T13:08:16.773Z,6.23
2019-02-25T13:09:42.226Z,6.00
2019-02-25T13:11:08.282Z,6.50
2019-02-25T13:12:33.715Z,5.45
2019-02-25T13:13:59.191Z,6.75
2019-02-25T13:15:24.850Z,5.45
2019-02-25T13:16:50.364Z,5.37
2019-02-25T13:18:15.816Z,6.08
2019-02-25T13:19:41.279Z,6.28
2019-02-25T13:21:06.673Z,6.95
2019-02-25T13:22:32.100Z,5.77
2019-02-25T13:23:59.337Z,6.92
2019-02-25T13:25:25.344Z,5.87
2019-02-25T13:26:50.793Z,7.30
2019-02-25T13:28:16.221Z,5.87
2019-02-25T13:29:41.704Z,8.75
2019-02-25T13:31:07.711Z,6.33
2019-02-25T13:32:33.939Z,6.75
2019-02-25T13:33:59.682Z,5.53
2019-02-25T13:35:25.402Z,5.83
2019-02-25T13:36:50.906Z,6.50
2019-02-25T13:38:16.383Z,6.67
2019-02-25T13:39:41.926Z,7.07
2019-02-25T13:41:07.388Z,6.58
2019-02-25T13:42:32.807Z,7.03
2019-02-25T13:43:58.214Z,6.70
2019-02-25T13:45:23.793Z,6.58
2019-02-25T13:46:49.240Z,6.90
2019-02-25T13:48:14.734Z,8.23
2019-02-25T13:49:40.165Z,6.30
2019-02-25T13:51:05.909Z,6.28
2019-02-25T13:52:31.390Z,6.23
2019-02-25T13:53:56.856Z,6.08
2019-02-25T13:55:22.338Z,5.87
2019-02-25T13:56:47.881Z,7.28
2019-02-25T13:58:13.403Z,6.15
2019-02-25T13:59:38.998Z,6.33
2019-02-25T14:01:04.804Z,7.53
2019-02-25T14:02:30.411Z,6.90
2019-02-25T14:03:56.086Z,6.65
2019-02-25T14:05:22.616Z,6.80
2019-02-25T14:06:48.078Z,7.90
2019-02-25T14:08:13.521Z,8.43
2019-02-25T14:09:38.902Z,6.43
2019-02-25T14:11:04.358Z,6.95
2019-02-25T14:12:29.907Z,8.03
2019-02-25T14:13:55.470Z,7.10
2019-02-25T14:15:21.858Z,6.30
2019-02-25T14:16:47.386Z,7.22
2019-02-25T14:18:12.817Z,6.23
2019-02-25T14:19:38.483Z,5.65
2019-02-25T14:21:03.996Z,6.30
2019-02-25T14:22:29.501Z,6.40
2019-02-25T14:23:55.084Z,6.08
2019-02-25T14:25:21.891Z,6.10
2019-02-25T14:26:47.345Z,6.65
2019-02-25T14:28:12.864Z,6.47
2019-02-25T14:29:38.542Z,5.97
2019-02-25T14:31:04.088Z,5.60
2019-02-25T14:32:29.999Z,6.92
2019-02-25T14:33:55.790Z,6.80
2019-02-25T14:35:22.557Z,7.67
2019-02-25T14:36:52.509Z,5.78
2019-02-25T14:38:20.138Z,6.30
2019-02-25T14:39:49.411Z,7.20
2019-02-25T14:41:13.722Z,5.35
2019-02-25T14:42:39.827Z,6.40
2019-02-25T14:44:08.254Z,5.50
2019-02-25T14:45:34.533Z,4.90
2019-02-25T14:47:02.643Z,7.42
2019-02-25T14:48:27.985Z,6.47
2019-02-25T14:49:54.354Z,6.20
2019-02-25T14:51:20.011Z,6.10
2019-02-25T14:52:45.683Z,5.53
2019-02-25T14:54:11.551Z,6.50
2019-02-25T14:55:37.240Z,5.60
2019-02-25T14:57:02.784Z,5.33
2019-02-25T14:58:31.338Z,6.05
2019-02-25T14:59:57.371Z,5.50
2019-02-25T15:01:24.669Z,6.00
2019-02-25T15:02:50.393Z,4.80
2019-02-25T15:04:16.123Z,4.90
2019-02-25T15:05:41.667Z,6.62
2019-02-25T15:07:08.660Z,5.95
2019-02-25T15:08:34.691Z,6.00
2019-02-25T15:10:02.355Z,5.33
2019-02-25T15:11:27.787Z,5.78
2019-02-25T15:12:56.473Z,5.20
2019-02-25T15:14:20.630Z,6.63
2019-02-25T15:15:47.840Z,6.05
2019-02-25T15:17:14.893Z,5.22
2019-02-25T15:18:40.406Z,5.33
2019-02-25T15:20:06.578Z,5.00
2019-02-25T15:21:33.091Z,5.72
2019-02-25T15:22:58.773Z,5.65
2019-02-25T15:24:24.210Z,5.70
2019-02-25T15:25:49.853Z,5.95
2019-02-25T15:27:15.564Z,5.67
2019-02-25T15:28:41.491Z,5.67
2019-02-25T15:30:10.022Z,5.70
2019-02-25T15:31:35.551Z,5.03
2019-02-25T15:33:01.121Z,5.92
2019-02-25T15:34:26.812Z,5.53
2019-02-25T15:35:52.357Z,4.63
2019-02-25T15:37:17.788Z,5.55
2019-02-25T15:38:46.031Z,5.97
2019-02-25T15:40:15.992Z,6.20
2019-02-25T15:41:44.094Z,5.62
2019-02-25T15:43:12.770Z,5.57
2019-02-25T15:44:37.355Z,6.35
2019-02-25T15:46:03.235Z,6.17
2019-02-25T15:47:29.330Z,4.75
2019-02-25T15:48:58.437Z,5.08
2019-02-25T15:50:24.426Z,5.80
2019-02-25T15:51:50.057Z,5.08
2019-02-25T15:53:16.202Z,5.40
2019-02-25T15:54:43.721Z,5.35
2019-02-25T15:56:10.670Z,6.58
2019-02-25T15:57:37.797Z,5.50
2019-02-25T15:59:04.523Z,5.42
2019-02-25T16:00:32.145Z,4.20
2019-02-25T16:01:59.009Z,5.78
2019-02-25T16:03:24.820Z,5.78
2019-02-25T16:04:50.368Z,5.58
2019-02-25T16:06:15.916Z,4.72
2019-02-25T16:07:41.762Z,5.97
2019-02-25T16:09:09.114Z,5.75
2019-02-25T16:10:34.754Z,5.25
2019-02-25T16:12:00.964Z,5.17
2019-02-25T16:13:27.126Z,5.37
2019-02-25T16:14:53.124Z,4.50
2019-02-25T16:16:19.973Z,4.62
2019-02-25T16:17:49.475Z,4.72
2019-02-25T16:19:17.026Z,5.90
2019-02-25T16:20:45.935Z,4.92
2019-02-25T16:22:09.702Z,4.75
2019-02-25T16:23:39.043Z,5.25
2019-02-25T16:25:03.733Z,5.37
2019-02-25T16:26:31.596Z,4.67
2019-02-25T16:27:57.046Z,5.37
2019-02-25T16:29:22.544Z,6.03
2019-02-25T16:30:49.136Z,5.72
2019-02-25T16:32:16.902Z,5.60
2019-02-25T16:33:42.265Z,5.05
2019-02-25T16:35:08.383Z,5.83
2019-02-25T16:36:33.919Z,5.10
2019-02-25T16:38:00.328Z,5.30
2019-02-25T16:39:26.471Z,5.12
2019-02-25T16:40:54.682Z,5.62
2019-02-25T16:42:19.008Z,5.03
2019-02-25T16:43:44.436Z,6.92
2019-02-25T16:45:34.247Z,5.20
2019-02-25T16:46:55.473Z,4.85
2019-02-25T16:48:24.220Z,5.15
2019-02-25T16:49:49.819Z,4.78
2019-02-25T16:51:15.388Z,5.80
2019-02-25T16:52:42.716Z,5.37
2019-02-25T16:54:11.017Z,4.40
2019-02-25T16:55:35.130Z,4.67
2019-02-25T16:57:00.942Z,6.08
2019-02-25T16:58:27.618Z,5.05
2019-02-25T16:59:55.592Z,4.95
2019-02-25T17:01:20.906Z,5.33
2019-02-25T17:02:47.847Z,5.95
2019-02-25T17:04:15.893Z,5.70
2019-02-25T17:05:42.901Z,5.20
2019-02-25T17:07:07.808Z,4.65
2019-02-25T17:08:34.540Z,5.45
2019-02-25T17:10:00.771Z,5.72
2019-02-25T17:11:27.326Z,4.08
2019-02-25T17:12:54.212Z,5.25
2019-02-25T17:14:21.673Z,6.30
2019-02-25T17:15:47.054Z,4.87
2019-02-25T17:17:12.578Z,4.53
2019-02-25T17:18:38.027Z,4.60
2019-02-25T17:20:03.679Z,5.08
2019-02-25T17:21:29.170Z,5.78
2019-02-25T17:22:54.815Z,5.08
2019-02-25T17:24:23.706Z,5.22
2019-02-25T17:25:47.397Z,5.12
2019-02-25T17:27:14.172Z,4.78
2019-02-25T17:28:39.738Z,5.67
2019-02-25T17:30:06.438Z,4.50
2019-02-25T17:31:32.788Z,5.12
2019-02-25T17:33:01.112Z,5.92
2019-02-25T17:34:26.606Z,4.65
2019-02-25T17:35:53.782Z,4.75
2019-02-25T17:37:19.555Z,4.70
2019-02-25T17:38:47.016Z,5.25
2019-02-25T17:40:13.186Z,5.08
2019-02-25T17:41:39.937Z,4.80
2019-02-25T17:43:06.129Z,4.33
2019-02-25T17:44:32.120Z,5.55
2019-02-25T17:46:00.353Z,5.75
2019-02-25T17:47:28.685Z,5.12
2019-02-25T17:48:53.219Z,5.37
2019-02-25T17:50:22.818Z,4.90
2019-02-25T17:51:49.532Z,4.97
2019-02-25T17:53:15.653Z,4.70
2019-02-25T17:54:41.538Z,6.33
2019-02-25T17:56:09.437Z,5.72
2019-02-25T17:57:36.930Z,5.15
2019-02-25T17:59:03.769Z,5.10
2019-02-25T18:00:36.357Z,5.12
2019-02-25T18:02:02.319Z,5.50
2019-02-25T18:03:28.080Z,4.50
2019-02-25T18:04:53.942Z,5.95
2019-02-25T18:06:22.924Z,5.20
2019-02-25T18:07:48.673Z,4.78
2019-02-25T18:09:16.048Z,4.40
2019-02-25T18:10:43.149Z,5.25
2019-02-25T18:12:10.722Z,5.33
2019-02-25T18:13:36.290Z,5.50
2019-02-25T18:15:03.237Z,4.87
2019-02-25T18:16:28.833Z,5.55
2019-02-25T18:17:54.358Z,4.30
2019-02-25T18:19:20.840Z,4.78
2019-02-25T18:20:47.010Z,5.97
2019-02-25T18:22:13.799Z,5.75
2019-02-25T18:23:39.751Z,5.30
2019-02-25T18:25:05.328Z,5.58
2019-02-25T18:26:31.491Z,4.20
2019-02-25T18:27:57.069Z,5.28
2019-02-25T18:29:23.562Z,6.65
2019-02-25T18:30:50.029Z,5.42
2019-02-25T18:32:15.698Z,5.35
2019-02-25T18:33:41.990Z,4.45
2019-02-25T18:35:09.358Z,5.28
2019-02-25T18:36:35.003Z,4.95
2019-02-25T18:38:04.771Z,5.58
2019-02-25T18:39:31.625Z,5.40
2019-02-25T18:40:58.670Z,4.72
2019-02-25T18:42:24.789Z,6.17
2019-02-25T18:43:51.495Z,5.42
2019-02-25T18:45:18.445Z,5.25
2019-02-25T18:46:46.120Z,5.40
2019-02-25T18:48:12.277Z,5.28
2019-02-25T18:49:37.714Z,4.85
2019-02-25T18:51:03.333Z,5.75
2019-02-25T18:52:29.609Z,4.90
2019-02-25T18:53:57.653Z,4.67
2019-02-25T18:55:24.922Z,5.40
2019-02-25T18:56:51.216Z,4.80
2019-02-25T18:58:17.297Z,5.37
2019-02-25T18:59:43.124Z,6.25
2019-02-25T19:01:09.761Z,6.50
2019-02-25T19:02:38.017Z,6.08
2019-02-25T19:04:03.814Z,6.40
2019-02-25T19:05:31.263Z,6.65
2019-02-25T19:06:56.448Z,6.23
2019-02-25T19:08:24.232Z,6.70
2019-02-25T19:09:51.165Z,6.58
2019-02-25T19:11:16.841Z,5.30
2019-02-25T19:12:43.904Z,4.67
2019-02-25T19:14:10.843Z,5.92
2019-02-25T19:15:37.376Z,6.00
2019-02-25T19:17:04.845Z,5.75
2019-02-25T19:18:32.230Z,6.45
2019-02-25T19:19:57.463Z,6.08
2019-02-25T19:21:23.788Z,6.03